RJNG(METAR)
04/28 17:00
METAR RJNG 280800Z 27008KT 9999 FEW030 21/M01 Q1004 RMK 1CU030
A2967=
戻る
トップページへ戻る
IMOC Co,.Ltd.